sensor_id;sensor_type;location;lat;lon;timestamp;temperature;humidity
3268;DHT22;1646;52.450;13.326;2022-07-10T00:01:02;15.90;99.90
3268;DHT22;1646;52.450;13.326;2022-07-10T00:06:00;15.90;99.90
3268;DHT22;1646;52.450;13.326;2022-07-10T00:10:59;15.80;99.90
3268;DHT22;1646;52.450;13.326;2022-07-10T00:15:58;15.80;99.90
3268;DHT22;1646;52.450;13.326;2022-07-10T00:20:58;15.80;99.90
3268;DHT22;1646;52.450;13.326;2022-07-10T00:25:56;15.80;99.90
3268;DHT22;1646;52.450;13.326;2022-07-10T00:30:54;15.80;99.90
3268;DHT22;1646;52.450;13.326;2022-07-10T00:35:54;15.70;99.90
3268;DHT22;1646;52.450;13.326;2022-07-10T00:40:52;15.70;99.90
3268;DHT22;1646;52.450;13.326;2022-07-10T00:45:50;15.70;99.90
3268;DHT22;1646;52.450;13.326;2022-07-10T00:50:48;15.80;99.90
3268;DHT22;1646;52.450;13.326;2022-07-10T00:55:48;15.70;99.90
3268;DHT22;1646;52.450;13.326;2022-07-10T01:00:46;15.70;99.90
3268;DHT22;1646;52.450;13.326;2022-07-10T01:05:44;15.70;99.90
3268;DHT22;1646;52.450;13.326;2022-07-10T01:10:42;15.60;99.90
3268;DHT22;1646;52.450;13.326;2022-07-10T01:15:42;15.60;99.90
3268;DHT22;1646;52.450;13.326;2022-07-10T01:20:41;15.50;99.90
3268;DHT22;1646;52.450;13.326;2022-07-10T01:25:41;15.60;99.90
3268;DHT22;1646;52.450;13.326;2022-07-10T01:30:39;15.50;99.90
3268;DHT22;1646;52.450;13.326;2022-07-10T01:35:37;15.50;99.90
3268;DHT22;1646;52.450;13.326;2022-07-10T01:40:35;15.40;99.90
3268;DHT22;1646;52.450;13.326;2022-07-10T01:45:35;15.30;99.90
3268;DHT22;1646;52.450;13.326;2022-07-10T01:50:33;15.20;99.90
3268;DHT22;1646;52.450;13.326;2022-07-10T01:55:31;15.20;99.90
3268;DHT22;1646;52.450;13.326;2022-07-10T02:00:30;15.10;99.90
3268;DHT22;1646;52.450;13.326;2022-07-10T02:05:29;15.10;99.90
3268;DHT22;1646;52.450;13.326;2022-07-10T02:10:27;15.10;99.90
3268;DHT22;1646;52.450;13.326;2022-07-10T02:15:25;15.10;99.90
3268;DHT22;1646;52.450;13.326;2022-07-10T02:20:23;15.10;99.90
3268;DHT22;1646;52.450;13.326;2022-07-10T02:25:23;15.20;99.90
3268;DHT22;1646;52.450;13.326;2022-07-10T02:30:21;15.20;99.90
3268;DHT22;1646;52.450;13.326;2022-07-10T02:35:19;15.20;99.90
3268;DHT22;1646;52.450;13.326;2022-07-10T02:40:17;15.20;99.90
3268;DHT22;1646;52.450;13.326;2022-07-10T02:45:17;15.10;99.90
3268;DHT22;1646;52.450;13.326;2022-07-10T02:50:15;15.10;99.90
3268;DHT22;1646;52.450;13.326;2022-07-10T02:55:13;15.10;99.90
3268;DHT22;1646;52.450;13.326;2022-07-10T03:00:12;15.00;99.90
3268;DHT22;1646;52.450;13.326;2022-07-10T03:05:11;15.00;99.90
3268;DHT22;1646;52.450;13.326;2022-07-10T03:10:09;15.00;99.90
3268;DHT22;1646;52.450;13.326;2022-07-10T03:15:09;15.00;99.90
3268;DHT22;1646;52.450;13.326;2022-07-10T03:20:08;15.00;99.90
3268;DHT22;1646;52.450;13.326;2022-07-10T03:25:08;14.90;99.90
3268;DHT22;1646;52.450;13.326;2022-07-10T03:30:08;14.90;99.90
3268;DHT22;1646;52.450;13.326;2022-07-10T03:35:06;14.90;99.90
3268;DHT22;1646;52.450;13.326;2022-07-10T03:40:05;14.90;99.90
3268;DHT22;1646;52.450;13.326;2022-07-10T03:45:06;14.90;99.90
3268;DHT22;1646;52.450;13.326;2022-07-10T03:50:04;14.90;99.90
3268;DHT22;1646;52.450;13.326;2022-07-10T03:55:03;14.70;99.90
3268;DHT22;1646;52.450;13.326;2022-07-10T04:00:01;14.70;99.90
3268;DHT22;1646;52.450;13.326;2022-07-10T04:05:09;14.70;99.90
3268;DHT22;1646;52.450;13.326;2022-07-10T04:10:08;14.70;99.90
3268;DHT22;1646;52.450;13.326;2022-07-10T04:15:07;14.70;99.90
3268;DHT22;1646;52.450;13.326;2022-07-10T04:20:06;14.70;99.90
3268;DHT22;1646;52.450;13.326;2022-07-10T04:25:07;14.80;99.90
3268;DHT22;1646;52.450;13.326;2022-07-10T04:30:06;14.80;99.90
3268;DHT22;1646;52.450;13.326;2022-07-10T04:35:05;14.80;99.90
3268;DHT22;1646;52.450;13.326;2022-07-10T04:40:06;14.80;99.90
3268;DHT22;1646;52.450;13.326;2022-07-10T04:45:05;14.90;99.90
3268;DHT22;1646;52.450;13.326;2022-07-10T04:50:03;15.00;99.90
3268;DHT22;1646;52.450;13.326;2022-07-10T04:55:02;14.90;99.90
3268;DHT22;1646;52.450;13.326;2022-07-10T05:00:02;15.00;99.90
3268;DHT22;1646;52.450;13.326;2022-07-10T05:05:00;15.00;99.90
3268;DHT22;1646;52.450;13.326;2022-07-10T05:09:58;15.10;99.90
3268;DHT22;1646;52.450;13.326;2022-07-10T05:14:56;15.10;99.90
3268;DHT22;1646;52.450;13.326;2022-07-10T05:19:57;15.20;99.90
3268;DHT22;1646;52.450;13.326;2022-07-10T05:24:56;15.30;99.90
3268;DHT22;1646;52.450;13.326;2022-07-10T05:29:54;15.30;99.90
3268;DHT22;1646;52.450;13.326;2022-07-10T05:34:52;15.30;99.90
3268;DHT22;1646;52.450;13.326;2022-07-10T05:39:51;15.40;99.90
3268;DHT22;1646;52.450;13.326;2022-07-10T05:44:49;15.50;99.90
3268;DHT22;1646;52.450;13.326;2022-07-10T05:49:47;15.40;99.90
3268;DHT22;1646;52.450;13.326;2022-07-10T05:54:45;15.70;99.90
3268;DHT22;1646;52.450;13.326;2022-07-10T05:59:45;15.60;99.90
3268;DHT22;1646;52.450;13.326;2022-07-10T06:04:43;15.50;99.90
3268;DHT22;1646;52.450;13.326;2022-07-10T06:09:41;15.60;99.90
3268;DHT22;1646;52.450;13.326;2022-07-10T06:14:39;15.70;99.90
3268;DHT22;1646;52.450;13.326;2022-07-10T06:19:39;15.80;99.90
3268;DHT22;1646;52.450;13.326;2022-07-10T06:24:37;15.90;99.90
3268;DHT22;1646;52.450;13.326;2022-07-10T06:29:35;15.90;99.90
3268;DHT22;1646;52.450;13.326;2022-07-10T06:34:33;15.90;99.90
3268;DHT22;1646;52.450;13.326;2022-07-10T06:39:33;16.10;99.90
3268;DHT22;1646;52.450;13.326;2022-07-10T06:44:32;15.90;99.90
3268;DHT22;1646;52.450;13.326;2022-07-10T06:49:30;15.90;99.90
3268;DHT22;1646;52.450;13.326;2022-07-10T06:54:28;15.90;99.90
3268;DHT22;1646;52.450;13.326;2022-07-10T06:59:27;16.10;99.90
3268;DHT22;1646;52.450;13.326;2022-07-10T07:04:26;16.20;99.90
3268;DHT22;1646;52.450;13.326;2022-07-10T07:09:24;16.30;99.90
3268;DHT22;1646;52.450;13.326;2022-07-10T07:14:22;16.30;99.90
3268;DHT22;1646;52.450;13.326;2022-07-10T07:19:21;16.30;99.90
3268;DHT22;1646;52.450;13.326;2022-07-10T07:24:27;16.50;99.90
3268;DHT22;1646;52.450;13.326;2022-07-10T07:29:25;16.50;99.90
3268;DHT22;1646;52.450;13.326;2022-07-10T07:34:25;16.50;99.90
3268;DHT22;1646;52.450;13.326;2022-07-10T07:39:23;17.00;99.90
3268;DHT22;1646;52.450;13.326;2022-07-10T07:44:21;17.70;99.90
3268;DHT22;1646;52.450;13.326;2022-07-10T07:49:26;17.90;99.90
3268;DHT22;1646;52.450;13.326;2022-07-10T07:54:24;18.20;99.90
3268;DHT22;1646;52.450;13.326;2022-07-10T07:59:22;18.30;99.90
3268;DHT22;1646;52.450;13.326;2022-07-10T08:04:20;18.00;99.90
3268;DHT22;1646;52.450;13.326;2022-07-10T08:09:20;17.60;99.90
3268;DHT22;1646;52.450;13.326;2022-07-10T08:14:18;17.00;99.90
3268;DHT22;1646;52.450;13.326;2022-07-10T08:19:16;16.80;99.90
3268;DHT22;1646;52.450;13.326;2022-07-10T08:24:14;17.00;99.90
3268;DHT22;1646;52.450;13.326;2022-07-10T08:29:14;17.20;99.90
3268;DHT22;1646;52.450;13.326;2022-07-10T08:34:12;17.30;99.90
3268;DHT22;1646;52.450;13.326;2022-07-10T08:39:11;17.50;99.90
3268;DHT22;1646;52.450;13.326;2022-07-10T08:44:09;17.70;99.90
3268;DHT22;1646;52.450;13.326;2022-07-10T08:49:13;17.60;99.90
3268;DHT22;1646;52.450;13.326;2022-07-10T08:54:14;17.60;99.90
3268;DHT22;1646;52.450;13.326;2022-07-10T08:59:18;17.60;99.90
3268;DHT22;1646;52.450;13.326;2022-07-10T09:04:19;17.90;99.90
3268;DHT22;1646;52.450;13.326;2022-07-10T09:09:18;17.90;99.90
3268;DHT22;1646;52.450;13.326;2022-07-10T09:14:17;18.30;99.90
3268;DHT22;1646;52.450;13.326;2022-07-10T09:19:31;18.50;99.90
3268;DHT22;1646;52.450;13.326;2022-07-10T09:24:35;18.70;99.90
3268;DHT22;1646;52.450;13.326;2022-07-10T09:29:44;19.20;99.90
3268;DHT22;1646;52.450;13.326;2022-07-10T09:34:46;19.70;99.90
3268;DHT22;1646;52.450;13.326;2022-07-10T09:39:52;20.00;99.90
3268;DHT22;1646;52.450;13.326;2022-07-10T09:44:50;20.10;99.90
3268;DHT22;1646;52.450;13.326;2022-07-10T09:49:50;19.80;99.90
3268;DHT22;1646;52.450;13.326;2022-07-10T09:54:48;19.30;99.90
3268;DHT22;1646;52.450;13.326;2022-07-10T09:59:46;19.20;99.90
3268;DHT22;1646;52.450;13.326;2022-07-10T10:04:45;19.10;99.90
3268;DHT22;1646;52.450;13.326;2022-07-10T10:09:51;19.20;99.90
3268;DHT22;1646;52.450;13.326;2022-07-10T10:14:50;19.40;99.90
3268;DHT22;1646;52.450;13.326;2022-07-10T10:19:49;19.40;99.90
3268;DHT22;1646;52.450;13.326;2022-07-10T10:25:09;19.60;99.90
3268;DHT22;1646;52.450;13.326;2022-07-10T10:30:08;19.30;99.90
3268;DHT22;1646;52.450;13.326;2022-07-10T10:35:07;19.10;99.90
3268;DHT22;1646;52.450;13.326;2022-07-10T10:40:09;19.10;99.90
3268;DHT22;1646;52.450;13.326;2022-07-10T10:45:31;19.30;99.90
3268;DHT22;1646;52.450;13.326;2022-07-10T10:50:41;20.10;99.90
3268;DHT22;1646;52.450;13.326;2022-07-10T10:55:40;20.10;99.90
3268;DHT22;1646;52.450;13.326;2022-07-10T11:00:39;19.80;99.90
3268;DHT22;1646;52.450;13.326;2022-07-10T11:05:42;19.80;99.90
3268;DHT22;1646;52.450;13.326;2022-07-10T11:10:43;19.90;99.90
3268;DHT22;1646;52.450;13.326;2022-07-10T11:15:46;20.20;99.90
3268;DHT22;1646;52.450;13.326;2022-07-10T11:20:46;20.30;99.90
3268;DHT22;1646;52.450;13.326;2022-07-10T11:25:49;20.20;99.90
3268;DHT22;1646;52.450;13.326;2022-07-10T11:30:57;20.30;99.90
3268;DHT22;1646;52.450;13.326;2022-07-10T11:35:55;20.20;99.90
3268;DHT22;1646;52.450;13.326;2022-07-10T11:40:55;19.90;99.90
3268;DHT22;1646;52.450;13.326;2022-07-10T11:45:53;19.60;99.90
3268;DHT22;1646;52.450;13.326;2022-07-10T11:50:56;19.50;99.90
3268;DHT22;1646;52.450;13.326;2022-07-10T11:55:56;19.40;99.90
3268;DHT22;1646;52.450;13.326;2022-07-10T12:00:57;19.50;99.90
3268;DHT22;1646;52.450;13.326;2022-07-10T12:06:02;19.80;99.90
3268;DHT22;1646;52.450;13.326;2022-07-10T12:11:11;20.20;99.90
3268;DHT22;1646;52.450;13.326;2022-07-10T12:16:09;20.40;99.90
3268;DHT22;1646;52.450;13.326;2022-07-10T12:21:08;20.10;99.90
3268;DHT22;1646;52.450;13.326;2022-07-10T12:26:09;20.20;99.90
3268;DHT22;1646;52.450;13.326;2022-07-10T12:31:08;20.30;99.90
3268;DHT22;1646;52.450;13.326;2022-07-10T12:36:07;20.80;99.90
3268;DHT22;1646;52.450;13.326;2022-07-10T12:41:06;20.70;99.90
3268;DHT22;1646;52.450;13.326;2022-07-10T12:46:11;20.60;99.90
3268;DHT22;1646;52.450;13.326;2022-07-10T12:51:23;21.10;99.90
3268;DHT22;1646;52.450;13.326;2022-07-10T12:56:33;21.30;99.90
3268;DHT22;1646;52.450;13.326;2022-07-10T13:01:43;21.30;99.90
3268;DHT22;1646;52.450;13.326;2022-07-10T13:06:42;21.40;99.90
3268;DHT22;1646;52.450;13.326;2022-07-10T13:11:41;21.50;99.90
3268;DHT22;1646;52.450;13.326;2022-07-10T13:16:39;21.40;99.90
3268;DHT22;1646;52.450;13.326;2022-07-10T13:21:39;21.70;99.90
3268;DHT22;1646;52.450;13.326;2022-07-10T13:26:37;22.00;99.90
3268;DHT22;1646;52.450;13.326;2022-07-10T13:31:35;22.50;98.70
3268;DHT22;1646;52.450;13.326;2022-07-10T13:36:33;22.60;98.10
3268;DHT22;1646;52.450;13.326;2022-07-10T13:41:32;22.30;98.70
3268;DHT22;1646;52.450;13.326;2022-07-10T13:46:30;22.20;97.20
3268;DHT22;1646;52.450;13.326;2022-07-10T13:51:29;22.70;98.30
3268;DHT22;1646;52.450;13.326;2022-07-10T13:56:27;22.90;96.60
3268;DHT22;1646;52.450;13.326;2022-07-10T14:01:27;22.60;95.70
3268;DHT22;1646;52.450;13.326;2022-07-10T14:06:25;22.60;96.70
3268;DHT22;1646;52.450;13.326;2022-07-10T14:11:23;22.80;95.60
3268;DHT22;1646;52.450;13.326;2022-07-10T14:16:21;23.40;96.60
3268;DHT22;1646;52.450;13.326;2022-07-10T14:21:21;23.90;94.10
3268;DHT22;1646;52.450;13.326;2022-07-10T14:26:22;23.80;93.70
3268;DHT22;1646;52.450;13.326;2022-07-10T14:31:20;24.10;94.20
3268;DHT22;1646;52.450;13.326;2022-07-10T14:36:18;24.40;93.00
3268;DHT22;1646;52.450;13.326;2022-07-10T14:41:20;24.70;92.50
3268;DHT22;1646;52.450;13.326;2022-07-10T14:46:18;24.80;90.70
3268;DHT22;1646;52.450;13.326;2022-07-10T14:51:16;24.10;89.50
3268;DHT22;1646;52.450;13.326;2022-07-10T14:56:23;24.00;91.00
3268;DHT22;1646;52.450;13.326;2022-07-10T15:01:22;24.20;90.30
3268;DHT22;1646;52.450;13.326;2022-07-10T15:06:20;24.30;90.50
3268;DHT22;1646;52.450;13.326;2022-07-10T15:11:18;24.50;90.20
3268;DHT22;1646;52.450;13.326;2022-07-10T15:16:20;24.60;87.90
3268;DHT22;1646;52.450;13.326;2022-07-10T15:21:18;24.50;85.00
3268;DHT22;1646;52.450;13.326;2022-07-10T15:26:16;24.20;87.10
3268;DHT22;1646;52.450;13.326;2022-07-10T15:31:15;24.00;89.50
3268;DHT22;1646;52.450;13.326;2022-07-10T15:36:14;23.50;89.80
3268;DHT22;1646;52.450;13.326;2022-07-10T15:41:13;23.10;90.10
3268;DHT22;1646;52.450;13.326;2022-07-10T15:46:11;22.60;87.10
3268;DHT22;1646;52.450;13.326;2022-07-10T15:51:11;22.40;89.20
3268;DHT22;1646;52.450;13.326;2022-07-10T15:56:12;22.40;89.60
3268;DHT22;1646;52.450;13.326;2022-07-10T16:01:11;22.50;89.00
3268;DHT22;1646;52.450;13.326;2022-07-10T16:06:10;22.40;89.00
3268;DHT22;1646;52.450;13.326;2022-07-10T16:11:09;22.10;90.20
3268;DHT22;1646;52.450;13.326;2022-07-10T16:16:08;22.10;90.80
3268;DHT22;1646;52.450;13.326;2022-07-10T16:21:07;22.50;90.90
3268;DHT22;1646;52.450;13.326;2022-07-10T16:26:11;22.70;89.40
3268;DHT22;1646;52.450;13.326;2022-07-10T16:31:11;22.80;89.90
3268;DHT22;1646;52.450;13.326;2022-07-10T16:36:09;22.80;89.60
3268;DHT22;1646;52.450;13.326;2022-07-10T16:41:07;22.30;90.50
3268;DHT22;1646;52.450;13.326;2022-07-10T16:46:05;22.00;90.00
3268;DHT22;1646;52.450;13.326;2022-07-10T16:51:05;22.00;90.00
3268;DHT22;1646;52.450;13.326;2022-07-10T16:56:12;22.20;90.00
3268;DHT22;1646;52.450;13.326;2022-07-10T17:01:10;22.10;89.30
3268;DHT22;1646;52.450;13.326;2022-07-10T17:06:11;21.90;89.30
3268;DHT22;1646;52.450;13.326;2022-07-10T17:11:10;21.70;90.00
3268;DHT22;1646;52.450;13.326;2022-07-10T17:16:08;21.50;90.40
3268;DHT22;1646;52.450;13.326;2022-07-10T17:21:06;21.40;90.70
3268;DHT22;1646;52.450;13.326;2022-07-10T17:26:15;21.10;90.40
3268;DHT22;1646;52.450;13.326;2022-07-10T17:31:13;20.90;90.90
3268;DHT22;1646;52.450;13.326;2022-07-10T17:36:11;20.80;91.10
3268;DHT22;1646;52.450;13.326;2022-07-10T17:41:09;20.80;91.10
3268;DHT22;1646;52.450;13.326;2022-07-10T17:46:08;20.70;91.40
3268;DHT22;1646;52.450;13.326;2022-07-10T17:51:06;20.70;91.80
3268;DHT22;1646;52.450;13.326;2022-07-10T17:56:12;20.60;91.90
3268;DHT22;1646;52.450;13.326;2022-07-10T18:01:11;20.60;92.30
3268;DHT22;1646;52.450;13.326;2022-07-10T18:06:09;20.50;92.50
3268;DHT22;1646;52.450;13.326;2022-07-10T18:11:08;20.40;92.60
3268;DHT22;1646;52.450;13.326;2022-07-10T18:16:06;20.40;93.00
3268;DHT22;1646;52.450;13.326;2022-07-10T18:21:09;20.40;93.30
3268;DHT22;1646;52.450;13.326;2022-07-10T18:26:09;20.20;93.00
3268;DHT22;1646;52.450;13.326;2022-07-10T18:31:09;20.20;93.30
3268;DHT22;1646;52.450;13.326;2022-07-10T18:36:09;20.20;93.50
3268;DHT22;1646;52.450;13.326;2022-07-10T18:41:07;20.20;93.60
3268;DHT22;1646;52.450;13.326;2022-07-10T18:46:06;20.20;93.90
3268;DHT22;1646;52.450;13.326;2022-07-10T18:51:04;20.30;94.10
3268;DHT22;1646;52.450;13.326;2022-07-10T18:56:04;20.30;94.20
3268;DHT22;1646;52.450;13.326;2022-07-10T19:01:02;20.20;93.90
3268;DHT22;1646;52.450;13.326;2022-07-10T19:06:01;20.10;94.50
3268;DHT22;1646;52.450;13.326;2022-07-10T19:10:59;20.00;94.20
3268;DHT22;1646;52.450;13.326;2022-07-10T19:15:59;19.80;94.30
3268;DHT22;1646;52.450;13.326;2022-07-10T19:20:57;19.80;94.60
3268;DHT22;1646;52.450;13.326;2022-07-10T19:25:55;19.60;94.80
3268;DHT22;1646;52.450;13.326;2022-07-10T19:30:53;19.50;94.90
3268;DHT22;1646;52.450;13.326;2022-07-10T19:35:53;19.50;95.30
3268;DHT22;1646;52.450;13.326;2022-07-10T19:40:52;19.50;95.30
3268;DHT22;1646;52.450;13.326;2022-07-10T19:45:50;19.30;95.60
3268;DHT22;1646;52.450;13.326;2022-07-10T19:50:50;19.20;95.70
3268;DHT22;1646;52.450;13.326;2022-07-10T19:55:49;19.20;95.80
3268;DHT22;1646;52.450;13.326;2022-07-10T20:00:48;19.10;95.90
3268;DHT22;1646;52.450;13.326;2022-07-10T20:05:47;19.00;96.30
3268;DHT22;1646;52.450;13.326;2022-07-10T20:10:45;18.90;96.70
3268;DHT22;1646;52.450;13.326;2022-07-10T20:15:44;18.80;96.90
3268;DHT22;1646;52.450;13.326;2022-07-10T20:21:05;18.80;97.10
3268;DHT22;1646;52.450;13.326;2022-07-10T20:26:03;18.70;97.40
3268;DHT22;1646;52.450;13.326;2022-07-10T20:31:03;18.70;97.70
3268;DHT22;1646;52.450;13.326;2022-07-10T20:36:02;18.60;97.80
3268;DHT22;1646;52.450;13.326;2022-07-10T20:41:17;18.60;98.20
3268;DHT22;1646;52.450;13.326;2022-07-10T20:46:16;18.50;98.10
3268;DHT22;1646;52.450;13.326;2022-07-10T20:51:14;18.40;98.40
3268;DHT22;1646;52.450;13.326;2022-07-10T20:56:12;18.30;98.70
3268;DHT22;1646;52.450;13.326;2022-07-10T21:01:10;18.20;99.10
3268;DHT22;1646;52.450;13.326;2022-07-10T21:06:11;18.10;99.10
3268;DHT22;1646;52.450;13.326;2022-07-10T21:11:09;18.00;99.70
3268;DHT22;1646;52.450;13.326;2022-07-10T21:16:09;17.90;99.90
3268;DHT22;1646;52.450;13.326;2022-07-10T21:21:07;17.80;99.90
3268;DHT22;1646;52.450;13.326;2022-07-10T21:26:07;17.70;99.90
3268;DHT22;1646;52.450;13.326;2022-07-10T21:31:05;17.60;99.90
3268;DHT22;1646;52.450;13.326;2022-07-10T21:36:04;17.50;99.90
3268;DHT22;1646;52.450;13.326;2022-07-10T21:41:02;17.50;99.90
3268;DHT22;1646;52.450;13.326;2022-07-10T21:46:03;17.50;99.90
3268;DHT22;1646;52.450;13.326;2022-07-10T21:51:03;17.50;99.90
3268;DHT22;1646;52.450;13.326;2022-07-10T21:56:01;17.40;99.90
3268;DHT22;1646;52.450;13.326;2022-07-10T22:00:59;17.50;99.90
3268;DHT22;1646;52.450;13.326;2022-07-10T22:06:00;17.30;99.90
3268;DHT22;1646;52.450;13.326;2022-07-10T22:10:58;17.20;99.90
3268;DHT22;1646;52.450;13.326;2022-07-10T22:15:56;17.10;99.90
3268;DHT22;1646;52.450;13.326;2022-07-10T22:20:55;17.00;99.90
3268;DHT22;1646;52.450;13.326;2022-07-10T22:25:54;16.90;99.90
3268;DHT22;1646;52.450;13.326;2022-07-10T22:30:53;16.90;99.90
3268;DHT22;1646;52.450;13.326;2022-07-10T22:36:09;16.90;99.90
3268;DHT22;1646;52.450;13.326;2022-07-10T22:41:09;16.90;99.90
3268;DHT22;1646;52.450;13.326;2022-07-10T22:46:08;16.90;99.90
3268;DHT22;1646;52.450;13.326;2022-07-10T22:51:07;16.90;99.90
3268;DHT22;1646;52.450;13.326;2022-07-10T22:56:05;16.90;99.90
3268;DHT22;1646;52.450;13.326;2022-07-10T23:01:05;16.90;99.90
3268;DHT22;1646;52.450;13.326;2022-07-10T23:06:05;16.90;99.90
3268;DHT22;1646;52.450;13.326;2022-07-10T23:11:03;16.80;99.90
3268;DHT22;1646;52.450;13.326;2022-07-10T23:16:01;16.70;99.90
3268;DHT22;1646;52.450;13.326;2022-07-10T23:21:01;16.70;99.90
3268;DHT22;1646;52.450;13.326;2022-07-10T23:25:59;16.60;99.90
3268;DHT22;1646;52.450;13.326;2022-07-10T23:30:58;16.60;99.90
3268;DHT22;1646;52.450;13.326;2022-07-10T23:35:56;16.60;99.90
3268;DHT22;1646;52.450;13.326;2022-07-10T23:40:55;16.60;99.90
3268;DHT22;1646;52.450;13.326;2022-07-10T23:45:53;16.60;99.90
3268;DHT22;1646;52.450;13.326;2022-07-10T23:50:51;16.60;99.90
3268;DHT22;1646;52.450;13.326;2022-07-10T23:55:49;16.60;99.90
